Time;durP1;ratioP1;P1;durP2;ratioP2;P2;SDS_P1;SDS_P2;PMS_P1;PMS_P2;Temp;Humidity;BMP_temperature;BMP_pressure;BME280_temperature;BME280_humidity;BME280_pressure;Samples;Min_cycle;Max_cycle;Signal;HPM_P1;HPM_P2
2024/01/01 00:01:47;;;;;;;9.75;6.95;;;7.10;99.90;;;;;;5105103;28;20153;-50
2024/01/01 00:04:13;;;;;;;12.85;6.78;;;7.10;99.90;;;;;;5120829;28;20027;-50
2024/01/01 00:06:38;;;;;;;11.95;6.68;;;7.10;99.90;;;;;;5105422;28;20032;-50
2024/01/01 00:09:04;;;;;;;9.40;6.70;;;7.10;99.90;;;;;;5108597;28;20032;-49
2024/01/01 00:11:29;;;;;;;10.68;7.13;;;7.10;99.90;;;;;;5108414;28;20032;-50
2024/01/01 00:13:55;;;;;;;13.10;7.40;;;7.10;99.90;;;;;;5090387;28;20476;-50
2024/01/01 00:16:21;;;;;;;9.93;6.82;;;7.10;99.90;;;;;;5108541;28;20104;-50
2024/01/01 00:18:47;;;;;;;9.43;6.60;;;7.10;99.90;;;;;;5090229;28;20535;-50
2024/01/01 00:21:13;;;;;;;15.48;6.68;;;7.10;99.90;;;;;;5123979;28;20377;-50
2024/01/01 00:23:38;;;;;;;9.90;7.53;;;7.10;99.90;;;;;;5123930;28;20039;-50
2024/01/01 00:26:04;;;;;;;10.80;6.70;;;7.10;99.90;;;;;;5108357;28;20020;-49
2024/01/01 00:28:30;;;;;;;11.90;6.82;;;7.00;99.90;;;;;;5123947;28;20028;-50
2024/01/01 00:30:56;;;;;;;12.38;7.07;;;7.00;99.90;;;;;;5124186;28;20028;-49
2024/01/01 00:33:21;;;;;;;9.48;7.38;;;7.00;99.90;;;;;;5107994;28;20054;-50
2024/01/01 00:35:48;;;;;;;10.18;6.93;;;7.00;99.90;;;;;;5023475;28;2399446;-50
2024/01/01 00:38:13;;;;;;;8.68;7.00;;;7.00;99.90;;;;;;5125068;28;20032;-49
2024/01/01 00:40:39;;;;;;;9.20;7.05;;;7.00;99.90;;;;;;5109407;28;20024;-49
2024/01/01 00:43:04;;;;;;;9.50;7.43;;;7.00;99.90;;;;;;5109074;28;20052;-49
2024/01/01 00:45:30;;;;;;;9.45;7.55;;;7.00;99.90;;;;;;5109183;28;20057;-50
2024/01/01 00:47:56;;;;;;;10.23;6.65;;;7.00;99.90;;;;;;5109102;28;20051;-50
2024/01/01 00:50:21;;;;;;;9.25;6.72;;;7.00;99.90;;;;;;5124815;28;20016;-50
2024/01/01 00:52:47;;;;;;;11.18;7.03;;;6.90;99.90;;;;;;5109045;28;20036;-50
2024/01/01 00:55:13;;;;;;;9.02;6.90;;;7.00;99.90;;;;;;5108868;28;20036;-49
2024/01/01 00:57:38;;;;;;;8.45;6.70;;;6.90;99.90;;;;;;5107522;28;20055;-50
2024/01/01 01:00:04;;;;;;;9.85;6.80;;;6.90;99.90;;;;;;5107632;28;20032;-50
2024/01/01 01:02:30;;;;;;;10.27;7.05;;;6.90;99.90;;;;;;5124589;28;20081;-50
2024/01/01 01:04:56;;;;;;;11.43;6.32;;;6.90;99.90;;;;;;5090721;28;20096;-49
2024/01/01 01:07:21;;;;;;;7.78;6.55;;;6.90;99.90;;;;;;5108806;28;20024;-50
2024/01/01 01:09:47;;;;;;;9.23;6.30;;;6.90;99.90;;;;;;5090469;28;20032;-50
2024/01/01 01:12:13;;;;;;;11.18;6.93;;;6.90;99.90;;;;;;5108568;28;20028;-50
2024/01/01 01:14:38;;;;;;;7.43;5.97;;;6.90;99.90;;;;;;5124590;28;20028;-50
2024/01/01 01:17:04;;;;;;;8.35;6.60;;;6.90;99.90;;;;;;5124271;28;20498;-50
2024/01/01 01:19:30;;;;;;;7.55;6.15;;;6.90;99.90;;;;;;5108651;28;20073;-49
2024/01/01 01:21:55;;;;;;;8.88;6.35;;;6.80;99.90;;;;;;5107202;28;20024;-50
2024/01/01 01:24:21;;;;;;;10.80;7.43;;;6.90;99.90;;;;;;5107239;28;20088;-50
2024/01/01 01:26:46;;;;;;;9.15;6.32;;;6.80;99.90;;;;;;5124348;28;20035;-50
2024/01/01 01:29:12;;;;;;;9.35;5.85;;;6.80;99.90;;;;;;5108384;28;20021;-49
2024/01/01 01:31:39;;;;;;;7.80;6.40;;;6.80;99.90;;;;;;5108456;28;20107;-49
2024/01/01 01:34:05;;;;;;;10.30;6.63;;;6.80;99.90;;;;;;5108132;28;20040;-49
2024/01/01 01:36:31;;;;;;;7.78;5.95;;;6.80;99.90;;;;;;5107161;28;20362;-50
2024/01/01 01:38:57;;;;;;;7.18;5.90;;;6.80;99.90;;;;;;5123997;28;20032;-49
2024/01/01 01:41:23;;;;;;;9.85;6.70;;;6.80;99.90;;;;;;5089960;28;20058;-49
2024/01/01 01:43:49;;;;;;;8.18;5.65;;;6.80;99.90;;;;;;5108089;28;20048;-50
2024/01/01 01:46:15;;;;;;;7.25;5.97;;;6.80;99.90;;;;;;5106748;28;20100;-50
2024/01/01 01:48:40;;;;;;;9.23;6.15;;;6.80;99.90;;;;;;5108026;28;20024;-49
2024/01/01 01:51:06;;;;;;;8.13;5.82;;;6.80;99.90;;;;;;5106599;28;20476;-50
2024/01/01 01:53:31;;;;;;;9.00;6.10;;;6.80;99.90;;;;;;5107921;28;20032;-50
2024/01/01 01:55:58;;;;;;;6.95;5.75;;;6.80;99.90;;;;;;5106655;28;20028;-50
2024/01/01 01:58:24;;;;;;;8.02;5.38;;;6.70;99.90;;;;;;5106370;28;20040;-49
2024/01/01 02:00:50;;;;;;;7.10;5.40;;;6.80;99.90;;;;;;5106424;28;20058;-50
2024/01/01 02:03:15;;;;;;;7.15;5.63;;;6.70;99.90;;;;;;5106418;28;20038;-49
2024/01/01 02:05:42;;;;;;;8.00;5.70;;;6.80;99.90;;;;;;5123424;28;20016;-50
2024/01/01 02:08:08;;;;;;;7.80;5.80;;;6.70;99.90;;;;;;5106204;28;20021;-50
2024/01/01 02:10:34;;;;;;;6.72;5.57;;;6.80;99.90;;;;;;5123213;28;20063;-49
2024/01/01 02:12:59;;;;;;;8.30;5.90;;;6.80;99.90;;;;;;5123109;28;20092;-50
2024/01/01 02:15:25;;;;;;;9.13;5.85;;;6.70;99.90;;;;;;5107445;28;20036;-50
2024/01/01 02:17:51;;;;;;;6.10;5.18;;;6.70;99.90;;;;;;5123000;28;20039;-50
2024/01/01 02:20:16;;;;;;;5.72;4.72;;;6.70;99.90;;;;;;5107253;28;20028;-48
2024/01/01 02:22:42;;;;;;;6.78;5.13;;;6.70;99.90;;;;;;5123116;28;20055;-50
2024/01/01 02:25:09;;;;;;;7.82;5.68;;;6.70;99.90;;;;;;5106499;28;20544;-50
2024/01/01 02:27:37;;;;;;;6.68;4.93;;;6.70;99.90;;;;;;5108896;28;20024;-49
2024/01/01 02:30:04;;;;;;;7.15;5.13;;;6.70;99.90;;;;;;5106300;28;20054;-49
2024/01/01 02:32:30;;;;;;;8.45;4.80;;;6.70;99.90;;;;;;5107299;28;20024;-50
2024/01/01 02:34:55;;;;;;;9.02;5.18;;;6.70;99.90;;;;;;5106904;28;20043;-49
2024/01/01 02:37:21;;;;;;;7.95;4.90;;;6.70;99.90;;;;;;5107319;28;20066;-50
2024/01/01 02:39:46;;;;;;;7.63;5.57;;;6.70;99.90;;;;;;5107044;28;20047;-50
2024/01/01 02:42:12;;;;;;;7.68;5.43;;;6.70;99.90;;;;;;5105587;28;20036;-50
2024/01/01 02:44:37;;;;;;;7.35;5.30;;;6.70;99.90;;;;;;5107090;28;20020;-49
2024/01/01 02:47:03;;;;;;;5.95;5.07;;;6.70;99.90;;;;;;5106190;28;20031;-49
2024/01/01 02:49:29;;;;;;;6.63;5.00;;;6.70;99.90;;;;;;5122859;28;20020;-49
2024/01/01 02:51:54;;;;;;;6.05;5.15;;;6.70;99.90;;;;;;5105635;28;20468;-50
2024/01/01 02:54:20;;;;;;;6.60;4.90;;;6.70;99.90;;;;;;5088653;28;20047;-49
2024/01/01 02:56:46;;;;;;;6.38;5.10;;;6.70;99.90;;;;;;5122481;28;20028;-50
2024/01/01 02:59:11;;;;;;;6.65;4.90;;;6.70;99.90;;;;;;5106891;28;20027;-50
2024/01/01 03:01:37;;;;;;;5.75;4.90;;;6.70;99.90;;;;;;5106683;28;20039;-49
2024/01/01 03:04:02;;;;;;;5.75;4.72;;;6.70;99.90;;;;;;5122349;28;20035;-49
2024/01/01 03:06:28;;;;;;;6.72;4.30;;;6.70;99.90;;;;;;5105336;28;20111;-50
2024/01/01 03:08:53;;;;;;;7.28;4.75;;;6.70;99.90;;;;;;5105124;28;20070;-50
2024/01/01 03:11:19;;;;;;;5.45;4.20;;;6.70;99.90;;;;;;5122325;28;20031;-50
2024/01/01 03:13:45;;;;;;;6.32;4.53;;;6.70;99.90;;;;;;5106571;28;20059;-49
2024/01/01 03:16:10;;;;;;;4.50;4.00;;;6.70;99.90;;;;;;5106361;28;20054;-50
2024/01/01 03:18:36;;;;;;;4.97;4.47;;;6.70;99.90;;;;;;5122209;28;20112;-50
2024/01/01 03:21:02;;;;;;;6.18;4.20;;;6.70;99.90;;;;;;5106466;28;20028;-50
2024/01/01 03:23:27;;;;;;;5.00;4.10;;;6.70;99.90;;;;;;5106395;28;20035;-50
2024/01/01 03:25:53;;;;;;;4.57;4.03;;;6.70;99.90;;;;;;5106306;28;20430;-49
2024/01/01 03:28:18;;;;;;;5.03;4.15;;;6.70;99.90;;;;;;5088227;28;20031;-50
2024/01/01 03:30:44;;;;;;;6.13;4.25;;;6.70;99.90;;;;;;5106455;28;20138;-50
2024/01/01 03:33:09;;;;;;;6.40;4.22;;;6.70;99.90;;;;;;5122040;28;20506;-50
2024/01/01 03:35:35;;;;;;;6.22;3.90;;;6.70;99.90;;;;;;5122020;28;20057;-49
2024/01/01 03:38:01;;;;;;;5.63;3.92;;;6.70;99.90;;;;;;5106388;28;20039;-49
2024/01/01 03:40:27;;;;;;;4.97;4.32;;;6.70;99.90;;;;;;5105001;28;20054;-49
2024/01/01 03:42:53;;;;;;;5.35;4.10;;;6.70;99.90;;;;;;5124266;28;20422;-49
2024/01/01 03:45:19;;;;;;;4.20;3.80;;;6.70;99.90;;;;;;5126119;28;20124;-49
2024/01/01 03:47:44;;;;;;;4.53;3.95;;;6.70;99.90;;;;;;5110430;28;20020;-49
2024/01/01 03:50:10;;;;;;;5.18;4.10;;;6.70;99.90;;;;;;5108525;28;20071;-50
2024/01/01 03:52:35;;;;;;;4.38;3.30;;;6.70;99.90;;;;;;5110297;28;20035;-50
2024/01/01 03:55:01;;;;;;;4.85;3.58;;;6.70;99.90;;;;;;5110222;28;20039;-49
2024/01/01 03:57:27;;;;;;;4.05;3.38;;;6.70;99.90;;;;;;5110186;28;20020;-49
2024/01/01 03:59:53;;;;;;;4.95;3.50;;;6.70;99.90;;;;;;5110219;28;20036;-49
2024/01/01 04:02:18;;;;;;;5.47;3.80;;;6.70;99.90;;;;;;5109923;28;20028;-50
2024/01/01 04:04:44;;;;;;;4.78;3.90;;;6.70;99.90;;;;;;5110153;28;20050;-50
2024/01/01 04:07:10;;;;;;;4.65;3.33;;;6.70;99.90;;;;;;5125887;28;20020;-50
2024/01/01 04:09:36;;;;;;;5.28;3.72;;;6.70;99.90;;;;;;5110114;28;20028;-49
2024/01/01 04:12:01;;;;;;;5.40;3.88;;;6.70;99.90;;;;;;5091753;28;20059;-49
2024/01/01 04:14:27;;;;;;;4.18;3.15;;;6.70;99.90;;;;;;5108546;28;20107;-50
2024/01/01 04:16:52;;;;;;;5.95;3.88;;;6.70;99.90;;;;;;5108726;28;20047;-50
2024/01/01 04:19:18;;;;;;;4.13;3.72;;;6.70;99.90;;;;;;5125469;28;20028;-50
2024/01/01 04:21:44;;;;;;;4.45;3.47;;;6.70;99.90;;;;;;5109719;28;20039;-49
2024/01/01 04:24:09;;;;;;;5.10;3.65;;;6.70;99.90;;;;;;5109694;28;20028;-49
2024/01/01 04:26:37;;;;;;;4.55;3.72;;;6.70;99.90;;;;;;5109573;28;20032;-50
2024/01/01 04:29:02;;;;;;;5.85;3.63;;;6.70;99.90;;;;;;5091600;28;20032;-49
2024/01/01 04:31:28;;;;;;;6.72;3.75;;;6.70;99.90;;;;;;5109575;28;20476;-49
2024/01/01 04:33:54;;;;;;;4.50;3.92;;;6.70;99.90;;;;;;5109403;28;20074;-50
2024/01/01 04:36:20;;;;;;;4.68;3.70;;;6.70;99.90;;;;;;5091295;28;20040;-50
2024/01/01 04:38:46;;;;;;;5.20;3.75;;;6.60;99.90;;;;;;5109503;28;20027;-49
2024/01/01 04:41:12;;;;;;;4.75;3.83;;;6.70;99.90;;;;;;5108017;28;20032;-49
2024/01/01 04:43:40;;;;;;;5.63;3.78;;;6.80;99.90;;;;;;5125012;28;20024;-49
2024/01/01 04:46:06;;;;;;;5.85;3.97;;;6.60;99.90;;;;;;5109346;28;20056;-49
2024/01/01 04:48:32;;;;;;;5.13;3.30;;;6.60;99.90;;;;;;5109063;28;20059;-49
2024/01/01 04:50:58;;;;;;;4.97;4.15;;;6.60;99.90;;;;;;5124787;28;20491;-49
2024/01/01 04:53:24;;;;;;;4.68;3.30;;;6.70;99.90;;;;;;5108712;28;20054;-50
2024/01/01 04:55:49;;;;;;;6.38;3.20;;;6.70;99.90;;;;;;5108966;28;20064;-49
2024/01/01 04:58:15;;;;;;;4.00;3.40;;;6.60;99.90;;;;;;5108890;28;20035;-49
2024/01/01 05:00:41;;;;;;;5.22;3.42;;;6.60;99.90;;;;;;5124830;28;20036;-50
2024/01/01 05:03:06;;;;;;;3.85;2.97;;;6.60;99.90;;;;;;5108773;28;20020;-50
2024/01/01 05:05:32;;;;;;;6.35;3.20;;;6.60;99.90;;;;;;5108933;28;20129;-50
2024/01/01 05:07:57;;;;;;;3.65;3.00;;;6.60;99.90;;;;;;5108783;28;20024;-49
2024/01/01 05:10:23;;;;;;;3.83;3.25;;;6.60;99.90;;;;;;5108636;28;20054;-49
2024/01/01 05:12:48;;;;;;;6.00;3.15;;;6.60;99.90;;;;;;5108779;28;20023;-49
2024/01/01 05:15:14;;;;;;;4.93;3.42;;;6.60;99.90;;;;;;5108793;28;20384;-49
2024/01/01 05:17:39;;;;;;;5.43;3.15;;;6.60;99.90;;;;;;5124449;28;20020;-49
2024/01/01 05:20:06;;;;;;;5.38;3.38;;;6.60;99.90;;;;;;5107191;28;20032;-50
2024/01/01 05:22:31;;;;;;;4.45;3.25;;;6.60;99.90;;;;;;5124002;28;20027;-50
2024/01/01 05:24:57;;;;;;;5.18;2.83;;;6.60;99.90;;;;;;5108343;28;20028;-49
2024/01/01 05:27:23;;;;;;;4.45;3.35;;;6.60;99.90;;;;;;5107328;28;20080;-49
2024/01/01 05:29:51;;;;;;;4.40;3.20;;;6.60;99.90;;;;;;5124079;28;20021;-49
2024/01/01 05:32:17;;;;;;;4.22;3.05;;;6.60;99.90;;;;;;5108389;28;20032;-49
2024/01/01 05:34:43;;;;;;;3.90;3.05;;;6.60;99.90;;;;;;5123869;28;20043;-50
2024/01/01 05:37:08;;;;;;;4.13;3.28;;;6.60;99.90;;;;;;5124104;28;20031;-50
2024/01/01 05:39:34;;;;;;;3.35;2.40;;;6.60;99.90;;;;;;5108225;28;20028;-50
2024/01/01 05:42:00;;;;;;;4.60;2.88;;;6.60;99.90;;;;;;5123753;28;20062;-50
2024/01/01 05:44:25;;;;;;;4.40;2.97;;;6.60;99.90;;;;;;5089833;28;20092;-49
2024/01/01 05:46:51;;;;;;;5.07;3.05;;;6.60;99.90;;;;;;5123570;28;20031;-50
2024/01/01 05:49:18;;;;;;;4.90;3.33;;;6.50;99.90;;;;;;5124188;28;20420;-48
2024/01/01 05:51:44;;;;;;;2.90;2.58;;;6.60;99.90;;;;;;5125100;28;20169;-49
2024/01/01 05:54:10;;;;;;;4.28;3.00;;;6.60;99.90;;;;;;5090068;28;20031;-50
2024/01/01 05:56:35;;;;;;;3.28;2.92;;;6.50;99.90;;;;;;5106537;28;20046;-49
2024/01/01 05:59:01;;;;;;;3.53;2.65;;;6.60;99.90;;;;;;5106516;28;20024;-49
2024/01/01 06:01:27;;;;;;;3.22;2.92;;;6.60;99.90;;;;;;5107885;28;20471;-49
2024/01/01 06:03:52;;;;;;;3.35;3.00;;;6.60;99.90;;;;;;5123295;28;20039;-50
2024/01/01 06:06:18;;;;;;;3.90;2.95;;;6.60;99.90;;;;;;5107082;28;20097;-50
2024/01/01 06:08:44;;;;;;;3.30;2.97;;;6.50;99.90;;;;;;5107842;28;20028;-50
2024/01/01 06:11:10;;;;;;;3.90;2.90;;;6.60;99.90;;;;;;5107680;28;20088;-50
2024/01/01 06:13:35;;;;;;;4.68;2.92;;;6.60;99.90;;;;;;5106225;28;20027;-50
2024/01/01 06:16:03;;;;;;;4.22;2.88;;;6.50;99.90;;;;;;5106205;28;20020;-50
2024/01/01 06:18:28;;;;;;;4.28;2.40;;;6.60;99.90;;;;;;5123681;28;20050;-50
2024/01/01 06:20:54;;;;;;;3.65;2.42;;;6.50;99.90;;;;;;5123951;28;20028;-49
2024/01/01 06:23:19;;;;;;;3.63;2.67;;;6.60;99.90;;;;;;5089325;28;20031;-49
2024/01/01 06:25:45;;;;;;;3.40;2.85;;;6.60;99.90;;;;;;5107294;28;20031;-50
2024/01/01 06:28:11;;;;;;;4.00;2.92;;;6.60;99.90;;;;;;5107299;28;20028;-50
2024/01/01 06:30:36;;;;;;;4.07;2.20;;;6.60;99.90;;;;;;5122642;28;20028;-49
2024/01/01 06:33:02;;;;;;;3.08;2.60;;;6.60;99.90;;;;;;5088792;28;20024;-49
2024/01/01 06:35:30;;;;;;;2.92;2.40;;;6.60;99.90;;;;;;5122813;28;20070;-50
2024/01/01 06:37:56;;;;;;;4.30;2.58;;;6.60;99.90;;;;;;5122546;28;20038;-50
2024/01/01 06:40:22;;;;;;;3.60;2.90;;;6.60;99.90;;;;;;5122880;28;20032;-50
2024/01/01 06:42:48;;;;;;;4.28;2.70;;;6.60;99.90;;;;;;5122536;28;20038;-50
2024/01/01 06:45:14;;;;;;;3.25;2.80;;;6.60;99.90;;;;;;5088847;28;20100;-50
2024/01/01 06:47:39;;;;;;;3.50;2.75;;;6.60;99.90;;;;;;5122529;28;20074;-49
2024/01/01 06:50:05;;;;;;;2.97;2.50;;;6.60;99.90;;;;;;5105600;28;20093;-50
2024/01/01 06:52:31;;;;;;;5.03;2.80;;;6.50;99.90;;;;;;5106839;28;20024;-50
2024/01/01 06:54:56;;;;;;;2.33;2.10;;;6.60;99.90;;;;;;5106737;28;20036;-49
2024/01/01 06:57:22;;;;;;;3.53;2.63;;;6.60;99.90;;;;;;5106739;28;20099;-49
2024/01/01 06:59:48;;;;;;;4.28;2.35;;;6.50;99.90;;;;;;5106514;28;20039;-49
2024/01/01 07:02:13;;;;;;;2.72;2.22;;;6.60;99.90;;;;;;5122539;28;20024;-50
2024/01/01 07:04:39;;;;;;;3.63;2.13;;;6.60;99.90;;;;;;5122647;28;20479;-49
2024/01/01 07:07:04;;;;;;;3.88;2.58;;;6.60;99.90;;;;;;5107005;28;20052;-49
2024/01/01 07:09:30;;;;;;;3.17;2.10;;;6.60;99.90;;;;;;5105211;28;20020;-49
2024/01/01 07:11:57;;;;;;;3.20;2.50;;;6.60;99.90;;;;;;5122168;28;20055;-50
2024/01/01 07:14:23;;;;;;;2.67;2.30;;;6.60;99.90;;;;;;5122002;28;20028;-50
2024/01/01 07:16:51;;;;;;;2.83;2.15;;;6.60;99.90;;;;;;5088085;28;20042;-49
2024/01/01 07:19:16;;;;;;;2.50;2.28;;;6.50;99.90;;;;;;5106614;28;20039;-49
2024/01/01 07:21:42;;;;;;;4.00;1.95;;;6.60;99.90;;;;;;5122291;28;20028;-50
2024/01/01 07:24:08;;;;;;;4.07;2.47;;;6.60;99.90;;;;;;5106498;28;20024;-50
2024/01/01 07:26:33;;;;;;;3.75;2.20;;;6.60;99.90;;;;;;5088125;28;20028;-49
2024/01/01 07:28:59;;;;;;;2.85;2.00;;;6.60;99.90;;;;;;5106495;28;20036;-50
2024/01/01 07:31:25;;;;;;;5.13;2.40;;;6.60;99.90;;;;;;5106414;28;20055;-50
2024/01/01 07:33:50;;;;;;;3.28;2.10;;;6.60;99.90;;;;;;5106117;28;20028;-50
2024/01/01 07:36:16;;;;;;;2.70;2.03;;;6.60;99.90;;;;;;5088205;28;20056;-50
2024/01/01 07:38:42;;;;;;;3.22;2.30;;;6.60;99.90;;;;;;5106344;28;20050;-50
2024/01/01 07:41:08;;;;;;;2.97;1.95;;;6.60;99.90;;;;;;5104804;28;20047;-49
2024/01/01 07:43:33;;;;;;;3.67;2.00;;;6.60;99.90;;;;;;5106239;28;20036;-49
2024/01/01 07:45:59;;;;;;;3.33;2.40;;;6.60;99.90;;;;;;5121906;28;20029;-49
2024/01/01 07:48:24;;;;;;;2.42;2.08;;;6.60;99.90;;;;;;5106175;28;20052;-50
2024/01/01 07:50:50;;;;;;;2.25;1.80;;;6.60;99.90;;;;;;5122098;28;20071;-50
2024/01/01 07:53:16;;;;;;;3.13;2.05;;;6.60;99.90;;;;;;5106081;28;20032;-49
2024/01/01 07:55:41;;;;;;;3.00;1.92;;;6.60;99.90;;;;;;5106071;28;20028;-50
2024/01/01 07:58:07;;;;;;;3.90;2.50;;;6.60;99.90;;;;;;5121617;28;20028;-50
2024/01/01 08:00:32;;;;;;;2.80;2.03;;;6.60;99.90;;;;;;5087978;28;20206;-49
2024/01/01 08:02:58;;;;;;;3.92;1.80;;;6.60;99.90;;;;;;5105932;28;20057;-50
2024/01/01 08:05:24;;;;;;;3.40;1.98;;;6.60;99.90;;;;;;5106094;28;20078;-50
2024/01/01 08:07:49;;;;;;;2.70;1.90;;;6.60;99.90;;;;;;5087869;28;20020;-50
2024/01/01 08:10:15;;;;;;;2.10;1.70;;;6.60;99.90;;;;;;5088008;28;20449;-50
2024/01/01 08:12:41;;;;;;;2.53;1.67;;;6.60;99.90;;;;;;5087613;28;20087;-50
2024/01/01 08:15:07;;;;;;;2.65;1.83;;;6.60;99.90;;;;;;5106015;28;20028;-50
2024/01/01 08:17:33;;;;;;;3.05;1.90;;;6.70;99.90;;;;;;5121647;28;20357;-50
2024/01/01 08:19:58;;;;;;;2.50;1.70;;;6.70;99.90;;;;;;5105946;28;20131;-50
2024/01/01 08:22:24;;;;;;;2.35;2.00;;;6.70;99.90;;;;;;5121448;28;20051;-50
2024/01/01 08:24:49;;;;;;;3.03;1.95;;;6.60;99.90;;;;;;5106063;28;20028;-50
2024/01/01 08:27:15;;;;;;;3.13;1.80;;;6.70;99.90;;;;;;5087677;28;20028;-49
2024/01/01 08:29:41;;;;;;;2.75;2.15;;;6.70;99.90;;;;;;5109557;28;20050;-49
2024/01/01 08:32:07;;;;;;;3.28;1.67;;;6.70;99.90;;;;;;5109769;28;20034;-49
2024/01/01 08:34:33;;;;;;;3.67;2.17;;;6.70;99.90;;;;;;5124965;28;20032;-50
2024/01/01 08:37:02;;;;;;;2.78;1.50;;;6.70;99.90;;;;;;5125134;28;20028;-50
2024/01/01 08:39:28;;;;;;;2.03;1.60;;;6.70;99.90;;;;;;5109208;28;20032;-49
2024/01/01 08:41:53;;;;;;;2.67;1.52;;;6.70;99.90;;;;;;5125088;28;20043;-50
2024/01/01 08:44:19;;;;;;;2.50;1.60;;;6.70;99.90;;;;;;5125051;28;20043;-49
2024/01/01 08:46:44;;;;;;;2.15;1.60;;;6.70;99.90;;;;;;5109051;28;20074;-50
2024/01/01 08:49:10;;;;;;;2.85;1.70;;;6.70;99.90;;;;;;5109196;28;20406;-50
2024/01/01 08:51:36;;;;;;;3.08;1.58;;;6.70;99.90;;;;;;5124936;28;20027;-50
2024/01/01 08:54:05;;;;;;;2.13;1.20;;;6.70;99.90;;;;;;5107612;28;20484;-49
2024/01/01 08:56:30;;;;;;;2.20;1.20;;;6.70;99.90;;;;;;5124546;28;20028;-50
2024/01/01 08:58:56;;;;;;;4.07;1.50;;;6.70;99.90;;;;;;5124797;28;20055;-49
2024/01/01 09:01:22;;;;;;;2.15;1.10;;;6.80;99.90;;;;;;5124992;28;20480;-50
2024/01/01 09:03:47;;;;;;;2.83;1.30;;;6.70;99.90;;;;;;5108863;28;20028;-50
2024/01/01 09:06:13;;;;;;;2.75;1.40;;;6.80;99.90;;;;;;5107469;28;20032;-50
2024/01/01 09:08:38;;;;;;;2.22;1.30;;;6.80;99.90;;;;;;5108598;28;20042;-49
2024/01/01 09:11:04;;;;;;;3.80;1.60;;;6.80;99.90;;;;;;5108847;28;20036;-50
2024/01/01 09:13:30;;;;;;;3.20;1.48;;;6.80;99.90;;;;;;5090508;28;20043;-50
2024/01/01 09:15:55;;;;;;;2.83;1.50;;;6.80;99.90;;;;;;5107175;28;20464;-50
2024/01/01 09:18:21;;;;;;;2.97;1.58;;;6.80;99.90;;;;;;5124453;28;20024;-50
2024/01/01 09:20:47;;;;;;;2.40;1.48;;;6.80;99.90;;;;;;5090345;28;20036;-49
2024/01/01 09:23:13;;;;;;;1.88;1.42;;;6.80;99.90;;;;;;5108531;28;20028;-49
2024/01/01 09:25:42;;;;;;;2.40;1.20;;;6.80;99.90;;;;;;5125227;28;20538;-49
2024/01/01 09:28:07;;;;;;;2.28;1.27;;;6.80;99.90;;;;;;5090049;28;20036;-49
2024/01/01 09:30:33;;;;;;;3.03;1.20;;;6.80;99.90;;;;;;5090183;28;20537;-50
2024/01/01 09:32:59;;;;;;;4.85;1.35;;;6.90;99.90;;;;;;5124106;28;20035;-50
2024/01/01 09:35:24;;;;;;;3.03;1.48;;;6.90;99.90;;;;;;5123937;28;20036;-49
2024/01/01 09:37:54;;;;;;;2.05;1.40;;;6.90;99.90;;;;;;5108157;28;20460;-50
2024/01/01 09:40:20;;;;;;;1.67;1.10;;;6.90;99.90;;;;;;5088802;28;20032;-50
2024/01/01 09:42:50;;;;;;;1.90;1.08;;;6.90;99.90;;;;;;5123534;28;20021;-50
2024/01/01 09:45:15;;;;;;;1.10;0.93;;;6.90;99.90;;;;;;5123909;28;20103;-50
2024/01/01 09:47:41;;;;;;;2.30;1.15;;;6.90;99.90;;;;;;5108016;28;20016;-50
2024/01/01 09:50:08;;;;;;;2.85;1.27;;;6.90;99.90;;;;;;5107059;28;20020;-50
2024/01/01 09:52:33;;;;;;;2.15;1.20;;;6.90;99.90;;;;;;5106485;28;20118;-50
2024/01/01 09:54:59;;;;;;;2.15;1.25;;;7.00;99.90;;;;;;5123759;28;20028;-49
2024/01/01 09:57:24;;;;;;;3.53;1.45;;;7.00;99.90;;;;;;5107979;28;20050;-49
2024/01/01 09:59:50;;;;;;;1.80;1.05;;;7.00;99.90;;;;;;5089669;28;20020;-50
2024/01/01 10:02:16;;;;;;;2.10;1.20;;;7.00;99.90;;;;;;5123298;28;20029;-50
2024/01/01 10:04:42;;;;;;;2.42;1.30;;;7.00;99.90;;;;;;5107828;28;20117;-49
2024/01/01 10:07:08;;;;;;;3.63;1.40;;;7.00;99.90;;;;;;5106302;28;20111;-49
2024/01/01 10:09:36;;;;;;;1.45;1.17;;;7.10;99.90;;;;;;5106479;28;20039;-50
2024/01/01 10:12:11;;;;;;;5.45;1.30;;;7.10;99.90;;;;;;5105795;28;20032;-50
2024/01/01 10:14:46;;;;;;;1.40;0.90;;;7.10;99.90;;;;;;5107475;28;20051;-49
2024/01/01 10:17:13;;;;;;;3.13;1.02;;;7.10;99.90;;;;;;5123464;28;20085;-50
2024/01/01 10:20:08;;;;;;;2.63;1.23;;;7.10;99.90;;;;;;5107745;28;20042;-50
2024/01/01 10:22:34;;;;;;;2.53;1.00;;;7.10;99.90;;;;;;5106898;28;20073;-50
2024/01/01 10:25:13;;;;;;;2.22;0.93;;;7.20;99.90;;;;;;5107407;28;20028;-50
2024/01/01 10:27:38;;;;;;;2.53;1.30;;;7.10;99.90;;;;;;5107319;28;20020;-50
2024/01/01 10:30:05;;;;;;;1.88;0.90;;;7.20;99.90;;;;;;5123135;28;20020;-49
2024/01/01 10:32:30;;;;;;;2.47;1.27;;;7.20;99.90;;;;;;5123012;28;20525;-50
2024/01/01 10:35:00;;;;;;;2.65;1.35;;;7.20;99.90;;;;;;5105730;28;20032;-50
2024/01/01 10:37:26;;;;;;;2.85;1.10;;;7.20;99.90;;;;;;5105791;28;20016;-49
2024/01/01 10:39:52;;;;;;;2.10;1.05;;;7.20;99.90;;;;;;5089009;28;20028;-50
2024/01/01 10:42:18;;;;;;;1.42;1.10;;;7.30;99.90;;;;;;5123035;28;20024;-50
2024/01/01 10:44:43;;;;;;;2.95;1.15;;;7.30;99.90;;;;;;5122781;28;20468;-50
2024/01/01 10:47:09;;;;;;;1.98;0.90;;;7.30;99.90;;;;;;5105923;28;20032;-50
2024/01/01 10:49:35;;;;;;;1.60;0.93;;;7.30;99.90;;;;;;5122721;28;20027;-50
2024/01/01 10:52:31;;;;;;;2.58;1.00;;;7.30;99.90;;;;;;5105262;28;20066;-50
2024/01/01 10:55:19;;;;;;;1.70;1.13;;;7.40;99.90;;;;;;5121563;28;20028;-50
2024/01/01 10:58:07;;;;;;;1.17;1.08;;;7.40;99.90;;;;;;5106844;28;20039;-50
2024/01/01 11:01:02;;;;;;;2.88;1.05;;;7.40;99.90;;;;;;5106601;28;20025;-50
2024/01/01 11:03:28;;;;;;;3.67;0.90;;;7.40;99.90;;;;;;5106626;28;20036;-50
2024/01/01 11:05:54;;;;;;;1.42;0.90;;;7.40;99.90;;;;;;5105223;28;20032;-50
2024/01/01 11:08:26;;;;;;;1.65;0.80;;;7.10;99.90;;;;;;5106639;28;20028;-50
2024/01/01 11:10:52;;;;;;;2.25;1.02;;;7.50;99.90;;;;;;5105411;28;20054;-49
2024/01/01 11:13:27;;;;;;;1.45;0.70;;;7.50;99.90;;;;;;5105213;28;20027;-50
2024/01/01 11:15:59;;;;;;;3.60;1.20;;;7.50;99.90;;;;;;5106664;28;20028;-49
2024/01/01 11:18:34;;;;;;;2.92;0.90;;;7.50;99.90;;;;;;5106454;28;20032;-49
2024/01/01 11:21:06;;;;;;;1.10;1.00;;;7.50;99.90;;;;;;5122326;28;20024;-50
2024/01/01 11:23:41;;;;;;;2.45;0.88;;;7.50;99.90;;;;;;5121283;28;20290;-50
2024/01/01 11:26:26;;;;;;;2.13;0.60;;;7.60;99.90;;;;;;5088291;28;20064;-50
2024/01/01 11:28:52;;;;;;;2.30;1.13;;;7.60;99.90;;;;;;5106489;28;20319;-50
2024/01/01 11:31:17;;;;;;;2.05;0.80;;;7.60;99.90;;;;;;5122162;28;20031;-50
2024/01/01 11:33:43;;;;;;;2.78;0.90;;;7.60;99.90;;;;;;5104793;28;20024;-50
2024/01/01 11:36:09;;;;;;;1.38;0.85;;;7.70;99.90;;;;;;5088163;28;20047;-50
2024/01/01 11:38:35;;;;;;;3.60;0.90;;;7.70;99.90;;;;;;5122123;28;20028;-50
2024/01/01 11:41:01;;;;;;;3.33;1.20;;;7.70;99.90;;;;;;5105017;28;20036;-49
2024/01/01 11:43:26;;;;;;;2.05;0.88;;;7.70;99.90;;;;;;5106184;28;20042;-50
2024/01/01 11:45:55;;;;;;;2.03;1.05;;;7.70;99.90;;;;;;5122091;28;20031;-49
2024/01/01 11:48:21;;;;;;;1.58;0.75;;;7.80;99.90;;;;;;5106085;28;20091;-50
2024/01/01 11:50:48;;;;;;;3.67;0.80;;;7.80;99.90;;;;;;5104969;28;20058;-50
2024/01/01 11:53:17;;;;;;;2.22;0.90;;;7.80;99.90;;;;;;5087492;28;20031;-50
2024/01/01 11:55:43;;;;;;;3.92;0.90;;;7.80;99.90;;;;;;5121906;28;20033;-50
2024/01/01 11:58:09;;;;;;;4.32;1.10;;;7.80;99.90;;;;;;5104676;28;20027;-50
2024/01/01 12:00:35;;;;;;;1.23;0.65;;;7.80;99.90;;;;;;5104894;28;20056;-48
2024/01/01 12:03:02;;;;;;;1.40;0.80;;;7.80;99.90;;;;;;5105215;28;20028;-50
2024/01/01 12:05:27;;;;;;;1.92;0.82;;;7.80;99.90;;;;;;5091750;28;20115;-50
2024/01/01 12:07:53;;;;;;;2.45;0.75;;;7.90;99.90;;;;;;5109978;28;20031;-50
2024/01/01 12:10:20;;;;;;;1.52;0.85;;;7.80;99.70;;;;;;5108890;28;20468;-50
2024/01/01 12:12:46;;;;;;;3.25;0.80;;;7.90;99.60;;;;;;5091177;28;20048;-50
2024/01/01 12:15:19;;;;;;;1.90;0.80;;;7.90;99.50;;;;;;5115596;28;20024;-49
2024/01/01 12:17:46;;;;;;;1.77;0.88;;;7.90;99.40;;;;;;5073994;28;20035;-50
2024/01/01 12:20:15;;;;;;;1.27;0.70;;;7.90;99.30;;;;;;5109301;28;20032;-50
2024/01/01 12:22:41;;;;;;;2.28;0.73;;;7.90;99.20;;;;;;5109308;28;20028;-50
2024/01/01 12:25:12;;;;;;;2.92;0.90;;;8.00;99.20;;;;;;5109824;28;20055;-50
2024/01/01 12:27:38;;;;;;;4.00;1.17;;;8.00;99.10;;;;;;5109143;28;20597;-50
2024/01/01 12:30:04;;;;;;;3.63;0.90;;;8.00;99.10;;;;;;5091484;28;20024;-50
2024/01/01 12:32:30;;;;;;;1.30;0.70;;;8.00;99.00;;;;;;5091515;28;20030;-50
2024/01/01 12:34:56;;;;;;;1.52;0.52;;;8.00;99.00;;;;;;5109221;28;20035;-50
2024/01/01 12:37:22;;;;;;;2.95;1.10;;;8.00;98.90;;;;;;5091345;28;20027;-50
2024/01/01 12:39:48;;;;;;;1.50;0.60;;;8.10;98.90;;;;;;5108054;28;20101;-50
2024/01/01 12:42:14;;;;;;;1.92;0.77;;;8.10;98.90;;;;;;5109232;28;20538;-50
2024/01/01 12:44:39;;;;;;;3.03;1.08;;;8.10;98.90;;;;;;5109260;28;20028;-50
2024/01/01 12:47:05;;;;;;;3.40;0.82;;;8.10;98.90;;;;;;5109286;28;20097;-50
2024/01/01 12:49:34;;;;;;;1.90;0.85;;;8.20;98.90;;;;;;5109360;28;20073;-50
2024/01/01 12:52:00;;;;;;;2.10;0.95;;;8.10;98.90;;;;;;5109309;28;20452;-50